Terminal Aerodrome Forecast
Issued by NWS

Home | Current Version | Previous Version | Text Only | Print | Product List | Glossary On
Versions: 1 2 3 4 5 6 7 8 9 10 11 12 13 14 15 16 17
000
FTUS43 KOAX 230223 AAA
TAFCDR
TAF AMD
KCDR 230223Z 2302/2324 31020G33KT P6SM OVC040
     FM230400 33022G35KT 3SM -SN BKN020 OVC030
     FM230600 32018G30KT 1SM -SN BLSN SCT007 OVC015
     FM231300 33025G35KT 4SM BLSN VCSH SCT007 OVC015
     FM232000 33017G29KT P6SM OVC050=

USA.gov is the U.S. government's official web portal to all federal, state and local government web resources and services.